Kathy Ann — WDE6768 — position and weather

sailwx.info

Track history (hours):
 
Tides and Currents Weather Stations Pressure Air Temp Water Temp Dewpoint Dewpoint Depression Visibility Wind Speed Wind Dir Waves Ship Positions

Kathy Ann

Owner: Kathy Ann Corporation, Barnegat Light, NJ. More information available from US FCC via Universal Licensing System and Coast Guard Vessel Documentation Center.

Last reported at 2018-May-22 15:19 UTC. Time now 2018-May-22 19:31 UTC.
Position N 37°34' W 074°47'.

Length 34 m.

Type: Fishing. MMSI: 367384580.

Date/timePositionNaut miles runAvg speedWind from/ knotsBaromVisibWave heightAir tempDewpointWater temp
2018-May-22 15:19N 37°34' W 074°47'1 3.5
2018-May-22 15:00N 37°35' W 074°46'1 2.4
2018-May-22 14:30N 37°36' W 074°46'2 2.9
2018-May-22 13:55N 37°38' W 074°45'2 4.0
2018-May-22 13:30N 37°39' W 074°44'2 3.3
2018-May-22 12:58N 37°41' W 074°43'2 4.1
2018-May-22 12:30N 37°42' W 074°41'2 4.5
2018-May-22 12:00N 37°44' W 074°39'2 4.4
2018-May-22 11:30N 37°45' W 074°37'2 3.1
2018-May-22 10:54N 37°47' W 074°35'2 4.5
2018-May-22 10:30N 37°46' W 074°37'1 0.1
2018-May-22 03:52N 37°47' W 074°38'113 3.8
2018-May-20 22:18N 39°37' W 074°05'3 7.6
2018-May-20 21:58N 39°39' W 074°05'3 7.2
2018-May-20 21:29N 39°42' W 074°03'3 7.2
2018-May-20 21:00N 39°46' W 074°05'2 0.6
2018-May-20 18:31N 39°45' W 074°07'0 0.0
2018-May-20 18:01N 39°45' W 074°07'0 0.0
2018-May-20 17:49N 39°45' W 074°07'0 0.0
2018-May-20 17:19N 39°45' W 074°07'0 0.0
2018-May-20 16:43N 39°45' W 074°07'0 0.0
2018-May-20 16:07N 39°45' W 074°07'0 0.0
2018-May-20 15:52N 39°45' W 074°07'0 0.0
2018-May-20 14:22N 39°45' W 074°07'0 0.0
2018-May-20 13:52N 39°45' W 074°07'0 0.0
2018-May-20 12:01N 39°45' W 074°07'0 0.0
2018-May-20 11:55N 39°45' W 074°07'0 0.0
2018-May-20 11:13N 39°45' W 074°07'0 0.0
2018-May-20 10:55N 39°45' W 074°07'0 0.0
2018-May-20 09:25N 39°45' W 074°07'0 0.0
2018-May-20 08:49N 39°45' W 074°07'0 0.0
2018-May-20 07:37N 39°45' W 074°07'0 0.0
2018-May-20 05:42N 39°45' W 074°07'0 0.0
2018-May-20 05:18N 39°45' W 074°07'0 0.0
2018-May-20 05:00N 39°45' W 074°07'0 0.0
2018-May-20 03:12N 39°45' W 074°07'0 0.0
2018-May-20 02:54N 39°45' W 074°07'0 0.0
2018-May-20 00:39N 39°45' W 074°07'0 0.0
2018-May-19 20:54N 39°45' W 074°07'0 0.0
2018-May-19 20:27N 39°45' W 074°07'0 0.0
2018-May-19 20:00N 39°45' W 074°07'0 0.0
2018-May-19 19:30N 39°45' W 074°07'0 0.0
2018-May-19 17:30N 39°45' W 074°07'0 0.0
2018-May-19 14:39N 39°45' W 074°07'0 0.0
2018-May-19 14:30N 39°45' W 074°07'0 0.0
2018-May-19 08:54N 39°45' W 074°07'0 0.0
2018-May-19 08:27N 39°45' W 074°07'0 0.0
2018-May-19 07:51N 39°45' W 074°07'0 0.0
2018-May-19 06:51N 39°45' W 074°07'0 0.0
2018-May-19 04:06N 39°45' W 074°07'0 0.0
2018-May-18 23:36N 39°45' W 074°07'0 0.1
2018-May-18 23:30N 39°45' W 074°07'0 0.0
2018-May-18 21:18N 39°45' W 074°07'0 0.0
2018-May-18 20:45N 39°45' W 074°07'0 0.0
2018-May-18 20:21N 39°45' W 074°07'0 0.0
2018-May-18 20:00N 39°45' W 074°07'0 0.0
2018-May-18 19:30N 39°45' W 074°07'0 0.0
2018-May-18 18:48N 39°45' W 074°07'0 0.0
2018-May-18 18:24N 39°45' W 074°07'0 0.0
2018-May-18 18:00N 39°45' W 074°07'0 0.0
2018-May-18 17:30N 39°45' W 074°07'0 0.0
2018-May-18 13:30N 39°45' W 074°07'0 0.0
2018-May-18 12:48N 39°45' W 074°07'0 0.0
2018-May-18 12:24N 39°45' W 074°07'0 0.0
2018-May-18 10:24N 39°45' W 074°07'0 0.0
2018-May-18 10:00N 39°45' W 074°07'0 0.0
2018-May-18 08:42N 39°45' W 074°07'0 0.0
2018-May-18 08:30N 39°45' W 074°07'0 0.0
2018-May-18 08:00N 39°45' W 074°07'0 0.0
2018-May-18 07:30N 39°45' W 074°07'0 0.0
2018-May-18 06:24N 39°45' W 074°07'0 0.0
2018-May-18 05:54N 39°45' W 074°07'0 0.0
2018-May-18 05:24N 39°45' W 074°07'0 0.0
2018-May-18 04:36N 39°45' W 074°07'0 0.0
2018-May-18 04:24N 39°45' W 074°07'0 0.0
2018-May-18 04:00N 39°45' W 074°07'0 0.0
2018-May-18 03:30N 39°45' W 074°07'0 0.0
2018-May-18 03:00N 39°45' W 074°07'0 0.0
2018-May-18 02:03N 39°45' W 074°07'0 0.0
2018-May-18 01:09N 39°45' W 074°07'0 0.0
2018-May-18 00:51N 39°45' W 074°07'0 0.0
2018-May-18 00:27N 39°45' W 074°07'0 0.0
2018-May-17 23:27N 39°45' W 074°07'0 0.0
2018-May-17 22:39N 39°45' W 074°07'0 0.0
2018-May-17 22:09N 39°45' W 074°07'0 0.0
2018-May-17 21:51N 39°45' W 074°07'0 0.0
2018-May-17 21:21N 39°45' W 074°07'0 0.0
2018-May-17 20:57N 39°45' W 074°07'0 0.0
2018-May-17 19:27N 39°45' W 074°07'0 0.0
2018-May-17 18:39N 39°45' W 074°07'0 0.0
2018-May-17 18:27N 39°45' W 074°07'0 0.0
2018-May-17 17:51N 39°45' W 074°07'0 0.0
2018-May-17 17:21N 39°45' W 074°07'0 0.0
2018-May-17 16:57N 39°45' W 074°07'0 0.0
2018-May-17 16:27N 39°45' W 074°07'0 0.0
2018-May-17 15:57N 39°45' W 074°07'0 0.0
2018-May-17 15:27N 39°45' W 074°07'0 0.0
2018-May-17 14:51N 39°45' W 074°07'0 0.0
2018-May-17 14:27N 39°45' W 074°07'0 0.0
2018-May-17 13:57N 39°45' W 074°07'0 0.0
2018-May-17 12:33N 39°45' W 074°07'0 0.0
2018-May-17 12:21N 39°45' W 074°07'0 0.0
2018-May-17 11:45N 39°45' W 074°07'0 0.0
2018-May-17 10:51N 39°45' W 074°07'0 0.0
2018-May-17 09:39N 39°45' W 074°07'0 0.0
2018-May-17 09:21N 39°45' W 074°07'0 0.0
2018-May-17 07:09N 39°45' W 074°07'0 0.0
2018-May-17 06:33N 39°45' W 074°07'0 0.0
2018-May-17 06:09N 39°45' W 074°07'0 0.0
2018-May-17 05:51N 39°45' W 074°07'0 0.0
2018-May-17 05:21N 39°45' W 074°07'0 0.0
2018-May-17 04:58N 39°45' W 074°07'0 0.0
2018-May-17 04:27N 39°45' W 074°07'0 0.0
2018-May-17 03:21N 39°45' W 074°07'0 0.0
2018-May-17 01:33N 39°45' W 074°07'0 0.1
2018-May-17 01:27N 39°45' W 074°07'0 0.0
2018-May-17 00:33N 39°45' W 074°07'0 0.0
2018-May-17 00:27N 39°45' W 074°07'0 0.0
2018-May-16 23:39N 39°45' W 074°07'0 0.0
2018-May-16 23:21N 39°45' W 074°07'0 0.0
2018-May-16 21:21N 39°45' W 074°07'0 0.0
2018-May-16 20:51N 39°45' W 074°07'0 0.0
2018-May-16 20:28N 39°45' W 074°07'0 0.0
2018-May-16 18:52N 39°45' W 074°07'0 0.0
2018-May-16 18:28N 39°45' W 074°07'0 0.0
2018-May-16 16:22N 39°45' W 074°07'0 0.0
2018-May-16 15:52N 39°45' W 074°07'0 0.0
2018-May-16 15:22N 39°45' W 074°07'0 0.0
2018-May-16 14:58N 39°45' W 074°07'0 0.0
2018-May-16 14:04N 39°45' W 074°07'0 0.1
2018-May-16 13:58N 39°45' W 074°07'0 0.0
2018-May-16 13:28N 39°45' W 074°07'0 0.0
2018-May-16 12:40N 39°45' W 074°07'0 0.0
2018-May-16 12:22N 39°45' W 074°07'0 0.0
2018-May-16 11:16N 39°45' W 074°07'0 0.0
2018-May-16 10:52N 39°45' W 074°07'0 0.0
2018-May-16 10:16N 39°45' W 074°07'0 0.0
2018-May-16 09:04N 39°45' W 074°07'0 0.0
2018-May-16 08:46N 39°45' W 074°07'0 0.0
2018-May-16 08:28N 39°45' W 074°07'0 0.0
2018-May-16 07:58N 39°45' W 074°07'0 0.0
2018-May-16 07:10N 39°45' W 074°07'0 0.0
2018-May-16 06:58N 39°45' W 074°07'0 0.0
2018-May-16 06:16N 39°45' W 074°07'0 0.0
2018-May-16 05:52N 39°45' W 074°07'0 0.0
2018-May-16 05:28N 39°45' W 074°07'0 0.0
2018-May-16 04:58N 39°45' W 074°07'0 0.0
2018-May-16 04:22N 39°45' W 074°07'0 0.0
2018-May-16 03:52N 39°45' W 074°07'0 0.0
2018-May-16 03:28N 39°45' W 074°07'0 0.0
2018-May-16 02:58N 39°45' W 074°07'0 0.0
2018-May-16 02:28N 39°45' W 074°07'0 0.0
2018-May-16 01:58N 39°45' W 074°07'0 0.0
2018-May-15 22:52N 39°45' W 074°07'0 0.0
2018-May-15 22:22N 39°45' W 074°07'0 0.0
2018-May-15 20:46N 39°45' W 074°07'0 0.0
2018-May-15 20:28N 39°45' W 074°07'0 0.0
2018-May-15 19:49N 39°45' W 074°07'0 0.0
2018-May-15 19:19N 39°45' W 074°07'0 0.0
2018-May-15 17:01N 39°45' W 074°07'0 0.0
2018-May-15 16:43N 39°45' W 074°07'0 0.0
2018-May-15 16:07N 39°45' W 074°07'0 0.0
2018-May-15 15:55N 39°45' W 074°07'0 0.0
2018-May-15 11:13N 39°45' W 074°07'0 0.0
2018-May-15 10:55N 39°45' W 074°07'0 0.0
2018-May-15 10:25N 39°45' W 074°07'0 0.0
2018-May-15 09:58N 39°45' W 074°07'0 0.0
2018-May-15 08:58N 39°45' W 074°07'0 0.0
2018-May-15 08:16N 39°45' W 074°07'0 0.0
2018-May-15 07:52N 39°45' W 074°07'0 0.0
2018-May-15 07:28N 39°45' W 074°07'0 0.0
2018-May-15 06:58N 39°45' W 074°07'0 0.0
2018-May-15 06:13N 39°45' W 074°07'0 0.0
2018-May-15 05:13N 39°45' W 074°07'0 0.0
2018-May-15 04:49N 39°45' W 074°07'0 0.0
2018-May-15 04:13N 39°45' W 074°07'0 0.0
2018-May-15 00:40N 39°45' W 074°07'0 0.0
2018-May-15 00:22N 39°45' W 074°07'0 0.0
2018-May-14 23:31N 39°45' W 074°07'0 0.0
2018-May-14 23:01N 39°45' W 074°07'0 0.0
2018-May-14 22:43N 39°45' W 074°07'0 0.0
2018-May-14 22:22N 39°45' W 074°07'0 0.0
2018-May-14 17:40N 39°45' W 074°07'0 0.0
2018-May-14 17:28N 39°45' W 074°07'0 0.0
2018-May-14 15:49N 39°45' W 074°07'0 0.0
2018-May-14 13:41N 39°45' W 074°07'0 0.0
2018-May-14 13:29N 39°45' W 074°07'0 0.0
2018-May-14 11:53N 39°45' W 074°07'0 0.0
2018-May-14 11:23N 39°45' W 074°07'0 0.0
2018-May-14 10:59N 39°45' W 074°07'0 0.0
2018-May-14 10:17N 39°45' W 074°07'0 0.0
2018-May-14 09:41N 39°45' W 074°07'0 0.0
2018-May-14 09:23N 39°45' W 074°07'0 0.0
2018-May-14 08:53N 39°45' W 074°07'0 0.0
2018-May-14 07:41N 39°45' W 074°07'0 0.0
2018-May-14 07:23N 39°45' W 074°07'0 0.0
2018-May-14 06:59N 39°45' W 074°07'0 0.0
2018-May-14 04:59N 39°45' W 074°07'0 0.0
2018-May-14 04:29N 39°45' W 074°07'0 0.0
2018-May-14 02:59N 39°45' W 074°07'0 0.0
2018-May-14 00:35N 39°45' W 074°07'0 0.0
2018-May-14 00:29N 39°45' W 074°07'0 0.0
2018-May-13 23:59N 39°45' W 074°07'0 0.0
2018-May-13 22:23N 39°45' W 074°07'0 0.0
2018-May-13 20:08N 39°45' W 074°07'1 1.6
2018-May-13 19:38N 39°46' W 074°07'2 7.2
2018-May-13 19:25N 39°45' W 074°05'3 8.0
2018-May-13 19:00N 39°42' W 074°03'4 8.6
2018-May-13 18:29N 39°38' W 074°01'  
Track history (hours):
 
Tides and Currents Weather Stations Pressure Air Temp Water Temp Dewpoint Dewpoint Depression Visibility Wind Speed Wind Dir Waves Ship Positions

Kathy Ann

Owner: Kathy Ann Corporation, Barnegat Light, NJ. More information available from US FCC via Universal Licensing System and Coast Guard Vessel Documentation Center.

Last reported at 2018-May-22 15:19 UTC. Time now 2018-May-22 19:31 UTC.
Position N 37°34' W 074°47'.

Length 34 m.

Type: Fishing. MMSI: 367384580.

Date/timePositionNaut miles runAvg speedWind from/ knotsBaromVisibWave heightAir tempDewpointWater temp
2018-May-22 15:19N 37°34' W 074°47'1 3.5
2018-May-22 15:00N 37°35' W 074°46'1 2.4
2018-May-22 14:30N 37°36' W 074°46'2 2.9
2018-May-22 13:55N 37°38' W 074°45'2 4.0
2018-May-22 13:30N 37°39' W 074°44'2 3.3
2018-May-22 12:58N 37°41' W 074°43'2 4.1
2018-May-22 12:30N 37°42' W 074°41'2 4.5
2018-May-22 12:00N 37°44' W 074°39'2 4.4
2018-May-22 11:30N 37°45' W 074°37'2 3.1
2018-May-22 10:54N 37°47' W 074°35'2 4.5
2018-May-22 10:30N 37°46' W 074°37'1 0.1
2018-May-22 03:52N 37°47' W 074°38'113 3.8
2018-May-20 22:18N 39°37' W 074°05'3 7.6
2018-May-20 21:58N 39°39' W 074°05'3 7.2
2018-May-20 21:29N 39°42' W 074°03'3 7.2
2018-May-20 21:00N 39°46' W 074°05'2 0.6
2018-May-20 18:31N 39°45' W 074°07'0 0.0
2018-May-20 18:01N 39°45' W 074°07'0 0.0
2018-May-20 17:49N 39°45' W 074°07'0 0.0
2018-May-20 17:19N 39°45' W 074°07'0 0.0
2018-May-20 16:43N 39°45' W 074°07'0 0.0
2018-May-20 16:07N 39°45' W 074°07'0 0.0
2018-May-20 15:52N 39°45' W 074°07'0 0.0
2018-May-20 14:22N 39°45' W 074°07'0 0.0
2018-May-20 13:52N 39°45' W 074°07'0 0.0
2018-May-20 12:01N 39°45' W 074°07'0 0.0
2018-May-20 11:55N 39°45' W 074°07'0 0.0
2018-May-20 11:13N 39°45' W 074°07'0 0.0
2018-May-20 10:55N 39°45' W 074°07'0 0.0
2018-May-20 09:25N 39°45' W 074°07'0 0.0
2018-May-20 08:49N 39°45' W 074°07'0 0.0
2018-May-20 07:37N 39°45' W 074°07'0 0.0
2018-May-20 05:42N 39°45' W 074°07'0 0.0
2018-May-20 05:18N 39°45' W 074°07'0 0.0
2018-May-20 05:00N 39°45' W 074°07'0 0.0
2018-May-20 03:12N 39°45' W 074°07'0 0.0
2018-May-20 02:54N 39°45' W 074°07'0 0.0
2018-May-20 00:39N 39°45' W 074°07'0 0.0
2018-May-19 20:54N 39°45' W 074°07'0 0.0
2018-May-19 20:27N 39°45' W 074°07'0 0.0
2018-May-19 20:00N 39°45' W 074°07'0 0.0
2018-May-19 19:30N 39°45' W 074°07'0 0.0
2018-May-19 17:30N 39°45' W 074°07'0 0.0
2018-May-19 14:39N 39°45' W 074°07'0 0.0
2018-May-19 14:30N 39°45' W 074°07'0 0.0
2018-May-19 08:54N 39°45' W 074°07'0 0.0
2018-May-19 08:27N 39°45' W 074°07'0 0.0
2018-May-19 07:51N 39°45' W 074°07'0 0.0
2018-May-19 06:51N 39°45' W 074°07'0 0.0
2018-May-19 04:06N 39°45' W 074°07'0 0.0
2018-May-18 23:36N 39°45' W 074°07'0 0.1
2018-May-18 23:30N 39°45' W 074°07'0 0.0
2018-May-18 21:18N 39°45' W 074°07'0 0.0
2018-May-18 20:45N 39°45' W 074°07'0 0.0
2018-May-18 20:21N 39°45' W 074°07'0 0.0
2018-May-18 20:00N 39°45' W 074°07'0 0.0
2018-May-18 19:30N 39°45' W 074°07'0 0.0
2018-May-18 18:48N 39°45' W 074°07'0 0.0
2018-May-18 18:24N 39°45' W 074°07'0 0.0
2018-May-18 18:00N 39°45' W 074°07'0 0.0
2018-May-18 17:30N 39°45' W 074°07'0 0.0
2018-May-18 13:30N 39°45' W 074°07'0 0.0
2018-May-18 12:48N 39°45' W 074°07'0 0.0
2018-May-18 12:24N 39°45' W 074°07'0 0.0
2018-May-18 10:24N 39°45' W 074°07'0 0.0
2018-May-18 10:00N 39°45' W 074°07'0 0.0
2018-May-18 08:42N 39°45' W 074°07'0 0.0
2018-May-18 08:30N 39°45' W 074°07'0 0.0
2018-May-18 08:00N 39°45' W 074°07'0 0.0
2018-May-18 07:30N 39°45' W 074°07'0 0.0
2018-May-18 06:24N 39°45' W 074°07'0 0.0
2018-May-18 05:54N 39°45' W 074°07'0 0.0
2018-May-18 05:24N 39°45' W 074°07'0 0.0
2018-May-18 04:36N 39°45' W 074°07'0 0.0
2018-May-18 04:24N 39°45' W 074°07'0 0.0
2018-May-18 04:00N 39°45' W 074°07'0 0.0
2018-May-18 03:30N 39°45' W 074°07'0 0.0
2018-May-18 03:00N 39°45' W 074°07'0 0.0
2018-May-18 02:03N 39°45' W 074°07'0 0.0
2018-May-18 01:09N 39°45' W 074°07'0 0.0
2018-May-18 00:51N 39°45' W 074°07'0 0.0
2018-May-18 00:27N 39°45' W 074°07'0 0.0
2018-May-17 23:27N 39°45' W 074°07'0 0.0
2018-May-17 22:39N 39°45' W 074°07'0 0.0
2018-May-17 22:09N 39°45' W 074°07'0 0.0
2018-May-17 21:51N 39°45' W 074°07'0 0.0
2018-May-17 21:21N 39°45' W 074°07'0 0.0
2018-May-17 20:57N 39°45' W 074°07'0 0.0
2018-May-17 19:27N 39°45' W 074°07'0 0.0
2018-May-17 18:39N 39°45' W 074°07'0 0.0
2018-May-17 18:27N 39°45' W 074°07'0 0.0
2018-May-17 17:51N 39°45' W 074°07'0 0.0
2018-May-17 17:21N 39°45' W 074°07'0 0.0
2018-May-17 16:57N 39°45' W 074°07'0 0.0
2018-May-17 16:27N 39°45' W 074°07'0 0.0
2018-May-17 15:57N 39°45' W 074°07'0 0.0
2018-May-17 15:27N 39°45' W 074°07'0 0.0
2018-May-17 14:51N 39°45' W 074°07'0 0.0
2018-May-17 14:27N 39°45' W 074°07'0 0.0
2018-May-17 13:57N 39°45' W 074°07'0 0.0
2018-May-17 12:33N 39°45' W 074°07'0 0.0
2018-May-17 12:21N 39°45' W 074°07'0 0.0
2018-May-17 11:45N 39°45' W 074°07'0 0.0
2018-May-17 10:51N 39°45' W 074°07'0 0.0
2018-May-17 09:39N 39°45' W 074°07'0 0.0
2018-May-17 09:21N 39°45' W 074°07'0 0.0
2018-May-17 07:09N 39°45' W 074°07'0 0.0
2018-May-17 06:33N 39°45' W 074°07'0 0.0
2018-May-17 06:09N 39°45' W 074°07'0 0.0
2018-May-17 05:51N 39°45' W 074°07'0 0.0
2018-May-17 05:21N 39°45' W 074°07'0 0.0
2018-May-17 04:58N 39°45' W 074°07'0 0.0
2018-May-17 04:27N 39°45' W 074°07'0 0.0
2018-May-17 03:21N 39°45' W 074°07'0 0.0
2018-May-17 01:33N 39°45' W 074°07'0 0.1
2018-May-17 01:27N 39°45' W 074°07'0 0.0
2018-May-17 00:33N 39°45' W 074°07'0 0.0
2018-May-17 00:27N 39°45' W 074°07'0 0.0
2018-May-16 23:39N 39°45' W 074°07'0 0.0
2018-May-16 23:21N 39°45' W 074°07'0 0.0
2018-May-16 21:21N 39°45' W 074°07'0 0.0
2018-May-16 20:51N 39°45' W 074°07'0 0.0
2018-May-16 20:28N 39°45' W 074°07'0 0.0
2018-May-16 18:52N 39°45' W 074°07'0 0.0
2018-May-16 18:28N 39°45' W 074°07'0 0.0
2018-May-16 16:22N 39°45' W 074°07'0 0.0
2018-May-16 15:52N 39°45' W 074°07'0 0.0
2018-May-16 15:22N 39°45' W 074°07'0 0.0
2018-May-16 14:58N 39°45' W 074°07'0 0.0
2018-May-16 14:04N 39°45' W 074°07'0 0.1
2018-May-16 13:58N 39°45' W 074°07'0 0.0
2018-May-16 13:28N 39°45' W 074°07'0 0.0
2018-May-16 12:40N 39°45' W 074°07'0 0.0
2018-May-16 12:22N 39°45' W 074°07'0 0.0
2018-May-16 11:16N 39°45' W 074°07'0 0.0
2018-May-16 10:52N 39°45' W 074°07'0 0.0
2018-May-16 10:16N 39°45' W 074°07'0 0.0
2018-May-16 09:04N 39°45' W 074°07'0 0.0
2018-May-16 08:46N 39°45' W 074°07'0 0.0
2018-May-16 08:28N 39°45' W 074°07'0 0.0
2018-May-16 07:58N 39°45' W 074°07'0 0.0
2018-May-16 07:10N 39°45' W 074°07'0 0.0
2018-May-16 06:58N 39°45' W 074°07'0 0.0
2018-May-16 06:16N 39°45' W 074°07'0 0.0
2018-May-16 05:52N 39°45' W 074°07'0 0.0
2018-May-16 05:28N 39°45' W 074°07'0 0.0
2018-May-16 04:58N 39°45' W 074°07'0 0.0
2018-May-16 04:22N 39°45' W 074°07'0 0.0
2018-May-16 03:52N 39°45' W 074°07'0 0.0
2018-May-16 03:28N 39°45' W 074°07'0 0.0
2018-May-16 02:58N 39°45' W 074°07'0 0.0
2018-May-16 02:28N 39°45' W 074°07'0 0.0
2018-May-16 01:58N 39°45' W 074°07'0 0.0
2018-May-15 22:52N 39°45' W 074°07'0 0.0
2018-May-15 22:22N 39°45' W 074°07'0 0.0
2018-May-15 20:46N 39°45' W 074°07'0 0.0
2018-May-15 20:28N 39°45' W 074°07'0 0.0
2018-May-15 19:49N 39°45' W 074°07'0 0.0
2018-May-15 19:19N 39°45' W 074°07'0 0.0
2018-May-15 17:01N 39°45' W 074°07'0 0.0
2018-May-15 16:43N 39°45' W 074°07'0 0.0
2018-May-15 16:07N 39°45' W 074°07'0 0.0
2018-May-15 15:55N 39°45' W 074°07'0 0.0
2018-May-15 11:13N 39°45' W 074°07'0 0.0
2018-May-15 10:55N 39°45' W 074°07'0 0.0
2018-May-15 10:25N 39°45' W 074°07'0 0.0
2018-May-15 09:58N 39°45' W 074°07'0 0.0
2018-May-15 08:58N 39°45' W 074°07'0 0.0
2018-May-15 08:16N 39°45' W 074°07'0 0.0
2018-May-15 07:52N 39°45' W 074°07'0 0.0
2018-May-15 07:28N 39°45' W 074°07'0 0.0
2018-May-15 06:58N 39°45' W 074°07'0 0.0
2018-May-15 06:13N 39°45' W 074°07'0 0.0
2018-May-15 05:13N 39°45' W 074°07'0 0.0
2018-May-15 04:49N 39°45' W 074°07'0 0.0
2018-May-15 04:13N 39°45' W 074°07'0 0.0
2018-May-15 00:40N 39°45' W 074°07'0 0.0
2018-May-15 00:22N 39°45' W 074°07'0 0.0
2018-May-14 23:31N 39°45' W 074°07'0 0.0
2018-May-14 23:01N 39°45' W 074°07'0 0.0
2018-May-14 22:43N 39°45' W 074°07'0 0.0
2018-May-14 22:22N 39°45' W 074°07'0 0.0
2018-May-14 17:40N 39°45' W 074°07'0 0.0
2018-May-14 17:28N 39°45' W 074°07'0 0.0
2018-May-14 15:49N 39°45' W 074°07'0 0.0
2018-May-14 13:41N 39°45' W 074°07'0 0.0
2018-May-14 13:29N 39°45' W 074°07'0 0.0
2018-May-14 11:53N 39°45' W 074°07'0 0.0
2018-May-14 11:23N 39°45' W 074°07'0 0.0
2018-May-14 10:59N 39°45' W 074°07'0 0.0
2018-May-14 10:17N 39°45' W 074°07'0 0.0
2018-May-14 09:41N 39°45' W 074°07'0 0.0
2018-May-14 09:23N 39°45' W 074°07'0 0.0
2018-May-14 08:53N 39°45' W 074°07'0 0.0
2018-May-14 07:41N 39°45' W 074°07'0 0.0
2018-May-14 07:23N 39°45' W 074°07'0 0.0
2018-May-14 06:59N 39°45' W 074°07'0 0.0
2018-May-14 04:59N 39°45' W 074°07'0 0.0
2018-May-14 04:29N 39°45' W 074°07'0 0.0
2018-May-14 02:59N 39°45' W 074°07'0 0.0
2018-May-14 00:35N 39°45' W 074°07'0 0.0
2018-May-14 00:29N 39°45' W 074°07'0 0.0
2018-May-13 23:59N 39°45' W 074°07'0 0.0
2018-May-13 22:23N 39°45' W 074°07'0 0.0
2018-May-13 20:08N 39°45' W 074°07'1 1.6
2018-May-13 19:38N 39°46' W 074°07'2 7.2
2018-May-13 19:25N 39°45' W 074°05'3 8.0
2018-May-13 19:00N 39°42' W 074°03'4 8.6
2018-May-13 18:29N 39°38' W 074°01'  

Dump ship's entire track history